Time;durP1;ratioP1;P1;durP2;ratioP2;P2;SDS_P1;SDS_P2;PMS_P1;PMS_P2;Temp;Humidity;BMP_temperature;BMP_pressure;BME280_temperature;BME280_humidity;BME280_pressure;Samples;Min_cycle;Max_cycle;Signal;HPM_P1;HPM_P2
2022/12/13 00:00:24;;;;;;;16.00;9.20;;;-0.90;99.90;;;;;;5247136;28;20425;-52
2022/12/13 00:02:55;;;;;;;17.67;9.43;;;-0.90;99.90;;;;;;5246017;28;20202;-52
2022/12/13 00:05:26;;;;;;;17.50;10.60;;;-0.90;99.90;;;;;;5242966;28;20231;-51
2022/12/13 00:07:56;;;;;;;18.07;9.70;;;-0.90;99.90;;;;;;5245572;28;20232;-51
2022/12/13 00:10:27;;;;;;;15.17;8.90;;;-0.90;99.90;;;;;;5247224;28;20178;-50
2022/12/13 00:12:58;;;;;;;16.00;9.00;;;-0.90;99.90;;;;;;5240159;28;20179;-51
2022/12/13 00:15:28;;;;;;;22.90;10.47;;;-0.90;99.90;;;;;;5242562;28;20446;-52
2022/12/13 00:17:59;;;;;;;19.93;10.90;;;-1.00;99.90;;;;;;5249614;28;20707;-51
2022/12/13 00:20:30;;;;;;;18.43;10.50;;;-0.90;99.90;;;;;;5242411;28;20283;-51
2022/12/13 00:23:00;;;;;;;20.63;11.10;;;-0.80;99.90;;;;;;5255164;28;20182;-51
2022/12/13 00:25:32;;;;;;;16.63;11.37;;;-0.90;99.90;;;;;;5243683;28;20179;-50
2022/12/13 00:28:03;;;;;;;23.67;11.90;;;-0.90;99.90;;;;;;5244894;28;20179;-52
2022/12/13 00:30:34;;;;;;;21.13;10.93;;;-0.90;99.90;;;;;;5234899;28;20469;-50
2022/12/13 00:33:05;;;;;;;23.27;11.23;;;-0.90;99.90;;;;;;5242943;28;20274;-52
2022/12/13 00:35:40;;;;;;;17.87;10.67;;;-0.90;99.90;;;;;;5241917;28;20525;-50
2022/12/13 00:38:11;;;;;;;21.43;12.00;;;-0.90;99.90;;;;;;5241758;28;20457;-49
2022/12/13 00:40:41;;;;;;;20.03;11.77;;;-1.00;99.90;;;;;;5249116;28;20477;-51
2022/12/13 00:43:12;;;;;;;17.60;10.83;;;-0.90;99.90;;;;;;5239395;28;20179;-51
2022/12/13 00:45:43;;;;;;;40.97;12.30;;;-0.90;99.90;;;;;;5242406;28;20190;-51
2022/12/13 00:48:14;;;;;;;20.63;11.30;;;-1.00;99.90;;;;;;5232139;28;20796;-49
2022/12/13 00:50:44;;;;;;;28.57;12.87;;;-1.00;99.90;;;;;;5248353;28;20210;-53
2022/12/13 00:53:15;;;;;;;16.73;10.27;;;-1.00;99.90;;;;;;5247092;28;20184;-52
2022/12/13 00:55:45;;;;;;;17.67;10.77;;;-0.90;99.90;;;;;;5242042;28;20546;-52
2022/12/13 00:58:16;;;;;;;22.67;10.40;;;-1.00;99.90;;;;;;5239070;28;20217;-52
2022/12/13 01:00:47;;;;;;;15.37;10.60;;;-0.90;99.90;;;;;;5248497;28;20226;-51
2022/12/13 01:03:24;;;;;;;19.57;11.33;;;-1.00;99.90;;;;;;5241321;28;20656;-50
2022/12/13 01:05:54;;;;;;;21.00;11.77;;;-0.90;99.90;;;;;;5253885;28;20174;-51
2022/12/13 01:08:26;;;;;;;20.40;9.63;;;-1.00;99.90;;;;;;5247189;28;20538;-51
2022/12/13 01:10:57;;;;;;;17.70;9.87;;;-1.00;99.90;;;;;;5248155;28;20644;-50
2022/12/13 01:13:27;;;;;;;18.70;10.30;;;-1.10;99.90;;;;;;5245103;28;20452;-49
2022/12/13 01:16:02;;;;;;;17.00;9.83;;;-1.00;99.90;;;;;;5236953;28;20708;-51
2022/12/13 01:18:33;;;;;;;18.70;11.27;;;-1.00;99.90;;;;;;5264797;28;20215;-51
2022/12/13 01:21:07;;;;;;;16.07;9.83;;;-1.00;99.90;;;;;;5242427;28;20449;-50
2022/12/13 01:23:38;;;;;;;15.47;10.37;;;-1.10;99.90;;;;;;5245926;28;20432;-51
2022/12/13 01:26:13;;;;;;;21.23;10.33;;;-1.00;99.90;;;;;;5263791;28;20491;-51
2022/12/13 01:28:43;;;;;;;13.27;8.00;;;-1.00;99.90;;;;;;5244772;28;20439;-51
2022/12/13 01:31:17;;;;;;;15.57;8.23;;;-1.10;99.90;;;;;;5243677;28;20469;-51
2022/12/13 01:33:47;;;;;;;16.83;10.50;;;-1.00;99.90;;;;;;5246113;28;20223;-52
2022/12/13 01:36:21;;;;;;;18.30;9.13;;;-1.10;99.90;;;;;;5247912;28;20475;-51
2022/12/13 01:38:52;;;;;;;16.67;9.97;;;-1.00;99.90;;;;;;5244901;28;20228;-52
2022/12/13 01:41:22;;;;;;;13.77;8.73;;;-1.10;99.90;;;;;;5245626;28;20442;-51
2022/12/13 01:43:56;;;;;;;13.60;9.03;;;-0.90;99.90;;;;;;5244671;28;20208;-51
2022/12/13 01:46:32;;;;;;;16.40;10.03;;;-1.00;99.90;;;;;;5246133;28;20182;-51
2022/12/13 01:49:17;;;;;;;13.63;8.80;;;-1.00;99.90;;;;;;5252026;28;20460;-50
2022/12/13 01:51:58;;;;;;;17.47;9.67;;;-1.00;99.90;;;;;;5252175;28;20458;-49
2022/12/13 01:54:33;;;;;;;17.50;10.10;;;-1.00;99.90;;;;;;5244840;28;20438;-53
2022/12/13 01:57:07;;;;;;;23.63;10.90;;;-1.00;99.90;;;;;;5229457;28;20458;-52
2022/12/13 01:59:40;;;;;;;22.63;10.77;;;-1.10;99.90;;;;;;5246157;28;20425;-49
2022/12/13 02:02:13;;;;;;;14.57;10.10;;;-1.10;99.90;;;;;;5238206;28;20474;-51
2022/12/13 02:04:55;;;;;;;20.27;10.83;;;-1.00;99.90;;;;;;5236949;28;21015;-51
2022/12/13 02:07:31;;;;;;;18.90;9.47;;;-1.00;99.90;;;;;;5245425;28;20461;-51
2022/12/13 02:10:04;;;;;;;14.50;9.20;;;-1.00;99.90;;;;;;5247330;28;20431;-52
2022/12/13 02:12:38;;;;;;;17.17;10.67;;;-1.00;99.90;;;;;;5243191;28;20457;-52
2022/12/13 02:15:13;;;;;;;15.97;9.47;;;-1.00;99.90;;;;;;5242826;28;20444;-50
2022/12/13 02:17:43;;;;;;;20.20;9.13;;;-1.10;99.90;;;;;;5263972;28;20801;-51
2022/12/13 02:20:33;;;;;;;16.80;9.60;;;-1.10;99.90;;;;;;5245458;28;20440;-51
2022/12/13 02:23:28;;;;;;;12.90;8.27;;;-1.00;99.90;;;;;;5245887;28;20188;-50
2022/12/13 02:26:20;;;;;;;15.67;9.13;;;-1.00;99.90;;;;;;5247143;28;20871;-50
2022/12/13 02:29:36;;;;;;;16.87;10.13;;;-1.00;99.90;;;;;;5244812;28;20530;-50
2022/12/13 02:32:32;;;;;;;17.67;8.90;;;-1.00;99.90;;;;;;5253560;22;20872;-52
2022/12/13 02:35:05;;;;;;;16.47;9.00;;;-1.00;99.90;;;;;;5285584;27;20795;-52
2022/12/13 02:37:56;;;;;;;11.50;8.50;;;-1.00;99.90;;;;;;5283514;28;22447;-50
2022/12/13 02:40:34;;;;;;;17.00;9.17;;;-1.00;99.90;;;;;;5251985;27;20435;-53
2022/12/13 02:43:24;;;;;;;17.90;10.53;;;-0.90;99.90;;;;;;5277639;28;20514;-51
2022/12/13 02:45:59;;;;;;;15.27;9.97;;;-0.80;99.90;;;;;;5260872;28;20440;-49
2022/12/13 02:48:38;;;;;;;21.33;10.13;;;-0.90;99.90;;;;;;5258478;28;20441;-52
2022/12/13 02:51:11;;;;;;;18.83;10.17;;;-0.90;99.90;;;;;;5263687;28;20465;-51
2022/12/13 02:53:43;;;;;;;16.07;10.63;;;-0.80;99.90;;;;;;5254577;28;20541;-52
2022/12/13 02:56:13;;;;;;;20.43;10.27;;;-0.80;99.90;;;;;;5261406;28;20558;-51
2022/12/13 02:58:48;;;;;;;20.07;11.63;;;-0.90;99.90;;;;;;5265069;28;20550;-52
2022/12/13 03:01:46;;;;;;;23.23;11.20;;;-0.70;99.90;;;;;;5262168;28;20462;-51
2022/12/13 03:04:29;;;;;;;20.07;11.83;;;-0.70;99.90;;;;;;5259621;28;20526;-52
2022/12/13 03:07:11;;;;;;;24.30;12.50;;;-0.80;99.90;;;;;;5262089;28;20446;-51
2022/12/13 03:09:54;;;;;;;18.97;11.10;;;-0.80;99.90;;;;;;5264124;28;20444;-50
2022/12/13 03:15:28;;;;;;;18.40;11.87;;;-0.80;99.90;;;;;;5260963;28;20993;-51
2022/12/13 03:18:17;;;;;;;24.63;12.50;;;-0.90;99.90;;;;;;5274380;28;20472;-51
2022/12/13 03:20:54;;;;;;;19.37;11.50;;;-0.90;99.90;;;;;;5261537;28;20501;-51
2022/12/13 03:23:26;;;;;;;22.83;11.43;;;-0.90;99.90;;;;;;5267925;28;20432;-54
2022/12/13 03:26:19;;;;;;;21.13;11.33;;;-0.90;99.90;;;;;;5263268;28;20527;-50
2022/12/13 03:28:51;;;;;;;21.90;12.00;;;-0.90;99.90;;;;;;5264165;28;20440;-50
2022/12/13 03:31:22;;;;;;;25.13;11.90;;;-1.00;99.90;;;;;;5265803;28;20825;-51
2022/12/13 03:33:52;;;;;;;23.13;11.90;;;-1.10;99.90;;;;;;5270867;28;20443;-54
2022/12/13 03:36:23;;;;;;;20.33;10.50;;;-1.10;99.90;;;;;;5259489;28;20183;-54
2022/12/13 03:38:54;;;;;;;23.37;11.70;;;-1.10;99.90;;;;;;5264545;28;20272;-50
2022/12/13 03:41:30;;;;;;;22.80;11.80;;;-1.00;99.90;;;;;;5263845;28;20456;-51
2022/12/13 03:44:06;;;;;;;25.53;10.63;;;-1.00;99.90;;;;;;5258579;28;20435;-52
2022/12/13 03:46:37;;;;;;;22.40;11.77;;;-1.00;99.90;;;;;;5254225;28;20804;-51
2022/12/13 03:49:07;;;;;;;23.07;12.27;;;-1.00;99.90;;;;;;5253187;28;20436;-50
2022/12/13 03:51:38;;;;;;;20.97;11.47;;;-1.00;99.90;;;;;;5257924;28;20209;-51
2022/12/13 03:54:09;;;;;;;21.03;11.63;;;-1.10;99.90;;;;;;5262600;28;20177;-52
2022/12/13 03:56:39;;;;;;;23.73;11.17;;;-1.20;99.90;;;;;;5258483;28;20211;-52
2022/12/13 03:59:10;;;;;;;21.60;12.90;;;-1.10;99.90;;;;;;5266705;28;20208;-50
2022/12/13 04:01:40;;;;;;;20.43;11.37;;;-1.10;99.90;;;;;;5260680;28;20206;-52
2022/12/13 04:04:11;;;;;;;25.07;12.40;;;-1.10;99.90;;;;;;5263606;28;20190;-53
2022/12/13 04:06:42;;;;;;;19.20;11.40;;;-1.10;99.90;;;;;;5263648;28;20186;-51
2022/12/13 04:09:12;;;;;;;20.27;11.70;;;-1.10;99.90;;;;;;5275595;28;20265;-51
2022/12/13 04:14:32;;;;;;;18.20;11.03;;;-1.10;99.90;;;;;;5260712;28;20273;-51
2022/12/13 04:17:03;;;;;;;22.80;11.13;;;-1.00;99.90;;;;;;5265456;28;20528;-49
2022/12/13 04:19:34;;;;;;;25.53;12.63;;;-1.00;99.90;;;;;;5269258;28;20193;-50
2022/12/13 04:22:04;;;;;;;21.00;12.70;;;-1.10;99.90;;;;;;5268300;28;20197;-52
2022/12/13 04:24:36;;;;;;;17.13;11.20;;;-1.10;99.90;;;;;;5264895;28;20183;-51
2022/12/13 04:27:07;;;;;;;23.00;12.27;;;-1.10;99.90;;;;;;5262781;28;20208;-51
2022/12/13 04:29:37;;;;;;;18.63;11.40;;;-1.10;99.90;;;;;;5266280;28;20462;-51
2022/12/13 04:32:08;;;;;;;23.17;11.70;;;-1.00;99.90;;;;;;5264870;28;20219;-49
2022/12/13 04:34:39;;;;;;;18.60;11.70;;;-1.00;99.90;;;;;;5268389;28;20209;-51
2022/12/13 04:37:09;;;;;;;20.93;11.43;;;-1.10;99.90;;;;;;5263666;28;20185;-50
2022/12/13 04:39:40;;;;;;;18.20;11.50;;;-1.00;99.90;;;;;;5271548;28;20179;-50
2022/12/13 04:42:11;;;;;;;21.63;12.17;;;-1.10;99.90;;;;;;5264617;28;20212;-51
2022/12/13 04:44:41;;;;;;;18.87;10.83;;;-1.10;99.90;;;;;;5259914;28;20223;-50
2022/12/13 04:47:12;;;;;;;19.23;11.40;;;-1.10;99.90;;;;;;5263817;28;20471;-52
2022/12/13 04:49:43;;;;;;;17.90;9.97;;;-1.10;99.90;;;;;;5271848;28;20194;-50
2022/12/13 04:52:14;;;;;;;23.20;11.80;;;-1.00;99.90;;;;;;5263137;28;20644;-50
2022/12/13 04:54:44;;;;;;;19.60;11.10;;;-1.00;99.90;;;;;;5267313;28;20640;-51
2022/12/13 04:57:15;;;;;;;20.67;11.40;;;-1.00;99.90;;;;;;5262839;28;20437;-51
2022/12/13 04:59:46;;;;;;;22.37;11.60;;;-1.00;99.90;;;;;;5263991;28;20193;-50
2022/12/13 05:02:16;;;;;;;16.70;10.60;;;-0.90;99.90;;;;;;5261425;28;20205;-51
2022/12/13 05:04:47;;;;;;;22.00;11.20;;;-1.00;99.90;;;;;;5267450;28;20178;-51
2022/12/13 05:07:18;;;;;;;19.87;11.10;;;-0.90;99.90;;;;;;5275730;28;20183;-50
2022/12/13 05:09:48;;;;;;;17.63;10.43;;;-1.00;99.90;;;;;;5260886;28;20183;-51
2022/12/13 05:12:19;;;;;;;18.47;10.00;;;-1.00;99.90;;;;;;5268246;28;20302;-52
2022/12/13 05:14:50;;;;;;;19.13;10.93;;;-1.00;99.90;;;;;;5266594;28;20189;-52
2022/12/13 05:17:21;;;;;;;16.93;10.50;;;-0.90;99.90;;;;;;5260501;28;20521;-52
2022/12/13 05:19:52;;;;;;;20.07;10.40;;;-0.90;99.90;;;;;;5271876;28;20532;-51
2022/12/13 05:22:22;;;;;;;21.70;12.17;;;-0.90;99.90;;;;;;5267010;28;20206;-52
2022/12/13 05:24:53;;;;;;;20.53;11.03;;;-0.90;99.90;;;;;;5263652;28;20194;-50
2022/12/13 05:27:24;;;;;;;18.77;10.50;;;-0.90;99.90;;;;;;5256401;28;20189;-51
2022/12/13 05:29:55;;;;;;;15.13;10.03;;;-0.90;99.90;;;;;;5250398;28;20228;-52
2022/12/13 05:32:26;;;;;;;26.53;11.20;;;-0.90;99.90;;;;;;5249846;28;21003;-52
2022/12/13 05:34:56;;;;;;;21.80;10.93;;;-0.90;99.90;;;;;;5250140;28;20501;-51
2022/12/13 05:37:27;;;;;;;23.43;11.97;;;-0.80;99.90;;;;;;5267555;27;20620;-52
2022/12/13 05:39:57;;;;;;;19.60;10.57;;;-0.80;99.90;;;;;;5255800;28;20178;-49
2022/12/13 05:42:28;;;;;;;27.17;12.40;;;-0.80;99.90;;;;;;5251605;28;20201;-54
2022/12/13 05:44:59;;;;;;;17.13;10.70;;;-0.70;99.90;;;;;;5256276;28;20211;-50
2022/12/13 05:47:29;;;;;;;29.27;11.40;;;-0.80;99.90;;;;;;5251227;28;20190;-52
2022/12/13 05:50:00;;;;;;;22.67;11.00;;;-0.80;99.90;;;;;;5253524;28;20187;-51
2022/12/13 05:52:31;;;;;;;22.13;10.90;;;-0.80;99.90;;;;;;5252550;28;20210;-50
2022/12/13 05:55:02;;;;;;;22.13;13.17;;;-0.90;99.90;;;;;;5254444;28;20550;-50
2022/12/13 05:57:33;;;;;;;18.17;10.60;;;-0.80;99.90;;;;;;5258569;28;20736;-52
2022/12/13 06:00:06;;;;;;;22.63;12.53;;;-0.80;99.90;;;;;;5257710;28;20440;-54
2022/12/13 06:02:38;;;;;;;26.97;13.10;;;-0.80;99.90;;;;;;5246114;28;20217;-53
2022/12/13 06:05:10;;;;;;;18.70;11.23;;;-0.90;99.90;;;;;;5247018;28;20493;-51
2022/12/13 06:07:40;;;;;;;19.20;10.33;;;-0.90;99.90;;;;;;5251772;28;20790;-53
2022/12/13 06:10:11;;;;;;;27.80;12.53;;;-0.80;99.90;;;;;;5250472;28;20492;-51
2022/12/13 06:12:42;;;;;;;22.73;11.67;;;-0.90;99.90;;;;;;5253959;28;20214;-52
2022/12/13 06:15:12;;;;;;;26.33;13.17;;;-0.90;99.90;;;;;;5255994;28;21628;-53
2022/12/13 06:17:43;;;;;;;27.10;12.50;;;-0.90;99.90;;;;;;5256334;28;20205;-53
2022/12/13 06:20:14;;;;;;;27.37;12.33;;;-1.00;99.90;;;;;;5247549;28;20264;-52
2022/12/13 06:22:44;;;;;;;25.80;13.10;;;-0.90;99.90;;;;;;5251240;28;20313;-51
2022/12/13 06:25:15;;;;;;;34.23;12.13;;;-0.90;99.90;;;;;;5265384;28;20189;-52
2022/12/13 06:27:46;;;;;;;18.73;12.57;;;-0.90;99.90;;;;;;5264291;28;20242;-51
2022/12/13 06:30:16;;;;;;;26.10;12.23;;;-0.90;99.90;;;;;;5263989;28;20549;-53
2022/12/13 06:32:49;;;;;;;23.93;13.20;;;-0.90;99.90;;;;;;5264931;28;20255;-51
2022/12/13 06:35:19;;;;;;;21.20;12.27;;;-0.90;99.90;;;;;;5264124;28;20186;-53
2022/12/13 06:37:53;;;;;;;29.77;13.00;;;-0.80;99.90;;;;;;5256054;28;20456;-53
2022/12/13 06:40:24;;;;;;;27.40;13.73;;;-0.90;99.90;;;;;;5264471;28;20652;-50
2022/12/13 06:42:54;;;;;;;22.70;12.97;;;-1.10;99.90;;;;;;5262930;28;20531;-50
2022/12/13 06:45:25;;;;;;;23.67;12.90;;;-1.00;99.90;;;;;;5266376;28;20183;-52
2022/12/13 06:47:56;;;;;;;22.37;12.13;;;-1.00;99.90;;;;;;5269922;28;20189;-51
2022/12/13 06:50:27;;;;;;;24.30;12.60;;;-0.90;99.90;;;;;;5263935;28;20281;-52
2022/12/13 06:52:57;;;;;;;22.17;12.27;;;-1.00;99.90;;;;;;5260920;28;20493;-51
2022/12/13 06:55:28;;;;;;;23.40;14.03;;;-0.90;99.90;;;;;;5260023;28;20186;-52
2022/12/13 06:57:59;;;;;;;21.70;13.13;;;-0.90;99.90;;;;;;5258542;28;20195;-52
2022/12/13 07:00:30;;;;;;;26.57;12.43;;;-0.90;99.90;;;;;;5265748;28;20450;-54
2022/12/13 07:03:01;;;;;;;36.07;14.37;;;-0.90;99.90;;;;;;5264736;28;20627;-50
2022/12/13 07:05:31;;;;;;;28.70;13.67;;;-0.80;99.90;;;;;;5267083;28;20428;-50
2022/12/13 07:08:02;;;;;;;24.20;13.17;;;-0.90;99.90;;;;;;5265874;28;20216;-50
2022/12/13 07:10:33;;;;;;;25.70;15.33;;;-0.90;99.90;;;;;;5271399;28;20346;-52
2022/12/13 07:13:03;;;;;;;24.63;14.07;;;-0.90;99.90;;;;;;5261468;28;20264;-51
2022/12/13 07:15:34;;;;;;;33.10;15.43;;;-1.00;99.90;;;;;;5268801;28;20181;-52
2022/12/13 07:18:05;;;;;;;30.37;14.50;;;-1.00;99.90;;;;;;5257931;28;20222;-51
2022/12/13 07:20:40;;;;;;;30.80;15.40;;;-0.90;99.90;;;;;;5258685;28;20173;-55
2022/12/13 07:23:11;;;;;;;29.00;13.90;;;-0.90;99.90;;;;;;5257449;28;20211;-50
2022/12/13 07:25:49;;;;;;;29.50;14.03;;;-0.90;99.90;;;;;;5263944;28;20483;-51
2022/12/13 07:28:20;;;;;;;25.80;13.20;;;-0.90;99.90;;;;;;5264652;28;20178;-58
2022/12/13 07:30:51;;;;;;;22.60;13.33;;;-1.00;99.90;;;;;;5260222;28;20448;-52
2022/12/13 07:33:22;;;;;;;28.77;14.50;;;-0.90;99.90;;;;;;5265179;28;20792;-52
2022/12/13 07:36:00;;;;;;;26.17;13.53;;;-1.10;99.90;;;;;;5266184;28;20185;-57
2022/12/13 07:38:31;;;;;;;28.30;13.90;;;-0.70;99.90;;;;;;5259258;28;20222;-51
2022/12/13 07:41:04;;;;;;;25.60;13.43;;;-1.20;99.90;;;;;;5252472;28;20815;-52
2022/12/13 07:43:35;;;;;;;35.60;16.03;;;-1.10;99.90;;;;;;5251160;28;20472;-55
2022/12/13 07:46:06;;;;;;;32.27;16.10;;;-1.00;99.90;;;;;;5242171;28;20522;-51
2022/12/13 07:48:36;;;;;;;33.83;15.90;;;-0.90;99.90;;;;;;5249644;28;20178;-52
2022/12/13 07:51:12;;;;;;;32.73;15.77;;;-1.00;99.90;;;;;;5255188;28;20558;-53
2022/12/13 07:53:43;;;;;;;33.83;15.30;;;-0.90;99.90;;;;;;5257012;28;20272;-52
2022/12/13 07:56:14;;;;;;;32.27;16.40;;;-1.00;99.90;;;;;;5266209;28;20440;-52
2022/12/13 07:58:46;;;;;;;29.60;15.90;;;-1.00;99.90;;;;;;5256074;28;20571;-55
2022/12/13 08:01:17;;;;;;;31.63;15.53;;;-1.00;99.90;;;;;;5255765;28;20291;-53
2022/12/13 08:03:47;;;;;;;41.93;19.50;;;-1.00;99.90;;;;;;5250686;28;20439;-55
2022/12/13 08:06:18;;;;;;;24.47;15.13;;;-0.90;99.90;;;;;;5253264;28;20428;-54
2022/12/13 08:08:50;;;;;;;35.53;17.33;;;-1.00;99.90;;;;;;5257749;28;20202;-53
2022/12/13 08:11:21;;;;;;;31.43;15.10;;;-0.90;99.90;;;;;;5249496;28;20209;-53
2022/12/13 08:13:54;;;;;;;33.73;17.30;;;-0.90;99.90;;;;;;5254974;28;20440;-55
2022/12/13 08:16:25;;;;;;;36.73;17.33;;;-1.00;99.90;;;;;;5257723;28;20177;-54
2022/12/13 08:18:57;;;;;;;38.13;18.03;;;-1.00;99.90;;;;;;5249699;28;20806;-53
2022/12/13 08:21:28;;;;;;;34.53;18.47;;;-1.00;99.90;;;;;;5273425;28;20202;-54
2022/12/13 08:23:58;;;;;;;31.63;16.43;;;-1.10;99.90;;;;;;5256737;28;20492;-53
2022/12/13 08:26:29;;;;;;;28.60;15.27;;;-1.00;99.90;;;;;;5257441;28;20184;-52
2022/12/13 08:28:59;;;;;;;36.20;16.63;;;-0.90;99.90;;;;;;5251437;28;20193;-53
2022/12/13 08:31:30;;;;;;;32.90;17.33;;;-0.90;99.90;;;;;;5281268;22;21859;-52
2022/12/13 08:34:01;;;;;;;29.83;15.70;;;-1.00;99.90;;;;;;5259555;28;20268;-50
2022/12/13 08:36:32;;;;;;;30.23;16.83;;;-1.00;99.90;;;;;;5256873;28;20923;-50
2022/12/13 08:39:03;;;;;;;34.10;18.27;;;-0.90;99.90;;;;;;5253141;28;20310;-49
2022/12/13 08:41:34;;;;;;;35.57;17.63;;;-0.80;99.90;;;;;;5249306;28;20206;-50
2022/12/13 08:44:05;;;;;;;36.53;16.30;;;-0.80;99.90;;;;;;5246055;28;20429;-54
2022/12/13 08:46:35;;;;;;;40.80;21.60;;;-0.70;99.90;;;;;;5222843;28;20245;-49
2022/12/13 08:49:06;;;;;;;45.23;17.67;;;-0.70;99.90;;;;;;5233282;28;20444;-51
2022/12/13 08:51:37;;;;;;;44.57;17.87;;;-0.60;99.90;;;;;;5239535;28;23694;-51
2022/12/13 08:54:07;;;;;;;29.80;15.07;;;-0.70;99.90;;;;;;5251324;28;20181;-53
2022/12/13 08:56:38;;;;;;;37.03;16.90;;;-0.70;99.90;;;;;;5220533;28;20660;-49
2022/12/13 08:59:09;;;;;;;27.40;14.80;;;-0.60;99.90;;;;;;5250964;28;20206;-48
2022/12/13 09:01:39;;;;;;;30.80;15.60;;;-0.70;99.90;;;;;;5235963;28;20264;-50
2022/12/13 09:04:10;;;;;;;31.20;15.50;;;-0.70;99.90;;;;;;5243575;28;20182;-51
2022/12/13 09:06:42;;;;;;;30.40;15.87;;;-0.70;99.90;;;;;;5240501;28;20226;-51
2022/12/13 09:09:13;;;;;;;28.10;15.97;;;-0.60;99.90;;;;;;5234412;28;20567;-51
2022/12/13 09:11:43;;;;;;;35.20;16.53;;;-0.60;99.90;;;;;;5243292;28;20468;-50
2022/12/13 09:14:14;;;;;;;35.97;16.00;;;-0.60;99.90;;;;;;5239224;28;20584;-52
2022/12/13 09:16:45;;;;;;;43.77;17.20;;;-0.60;99.90;;;;;;5238296;28;20179;-54
2022/12/13 09:19:15;;;;;;;40.13;19.00;;;-0.40;99.90;;;;;;5243990;28;20570;-53
2022/12/13 09:21:46;;;;;;;29.67;15.23;;;-0.40;99.90;;;;;;5238803;28;20194;-48
2022/12/13 09:24:17;;;;;;;35.30;16.00;;;-0.40;99.90;;;;;;5237985;28;20212;-47
2022/12/13 09:26:48;;;;;;;29.33;14.80;;;-0.30;99.90;;;;;;5239514;28;20733;-48
2022/12/13 09:29:18;;;;;;;39.90;17.43;;;-0.50;99.90;;;;;;5248668;28;20233;-49
2022/12/13 09:31:49;;;;;;;34.53;15.73;;;-0.40;99.90;;;;;;5241457;28;20217;-50
2022/12/13 09:34:20;;;;;;;30.17;17.27;;;-0.40;99.90;;;;;;5242956;28;20190;-46
2022/12/13 09:36:51;;;;;;;34.80;17.50;;;-0.40;99.90;;;;;;5239039;28;20472;-48
2022/12/13 09:39:22;;;;;;;43.23;16.30;;;-0.40;99.90;;;;;;5243579;28;20209;-49
2022/12/13 09:41:56;;;;;;;30.87;17.03;;;-0.40;99.90;;;;;;5255284;28;20200;-47
2022/12/13 09:44:31;;;;;;;31.70;15.87;;;-0.50;99.90;;;;;;5240702;28;20202;-48
2022/12/13 09:47:08;;;;;;;31.70;15.97;;;-0.50;99.90;;;;;;5238898;28;20498;-49
2022/12/13 09:49:43;;;;;;;28.93;15.47;;;-0.50;99.90;;;;;;5242951;28;20432;-49
2022/12/13 09:52:17;;;;;;;26.47;15.17;;;-0.50;99.90;;;;;;5256684;28;20451;-46
2022/12/13 09:54:52;;;;;;;34.00;15.60;;;-0.40;99.90;;;;;;5244281;28;20931;-49
2022/12/13 09:57:31;;;;;;;33.20;14.70;;;-0.40;99.90;;;;;;5238962;28;20525;-48
2022/12/13 10:00:09;;;;;;;26.93;14.40;;;-0.40;99.90;;;;;;5253192;28;20474;-49
2022/12/13 10:02:48;;;;;;;31.27;15.97;;;-0.40;99.90;;;;;;5243001;28;20543;-49
2022/12/13 10:05:36;;;;;;;22.37;15.27;;;-0.20;99.90;;;;;;5243183;28;21044;-50
2022/12/13 10:08:08;;;;;;;27.60;15.00;;;-0.40;99.90;;;;;;5241962;28;20440;-49
2022/12/13 10:10:39;;;;;;;42.07;15.00;;;-0.20;99.90;;;;;;5243577;28;20445;-49
2022/12/13 10:13:35;;;;;;;28.83;15.33;;;-0.30;99.90;;;;;;5243075;28;20462;-51
2022/12/13 10:16:23;;;;;;;34.30;15.77;;;-0.30;99.90;;;;;;5248530;28;20192;-50
2022/12/13 10:18:55;;;;;;;29.83;15.90;;;-0.20;99.90;;;;;;5229162;28;20605;-50
2022/12/13 10:21:38;;;;;;;35.13;15.30;;;-0.20;99.90;;;;;;5237297;28;20451;-50
2022/12/13 10:24:26;;;;;;;27.60;15.13;;;-0.30;99.90;;;;;;5237763;28;20502;-49
2022/12/13 10:27:14;;;;;;;24.10;14.33;;;-0.40;99.90;;;;;;5235841;28;20428;-48
2022/12/13 10:30:09;;;;;;;28.90;15.07;;;-0.50;99.90;;;;;;5241960;28;20759;-49
2022/12/13 10:32:56;;;;;;;34.70;16.00;;;-0.50;99.90;;;;;;5240354;28;20472;-51
2022/12/13 10:35:29;;;;;;;29.77;15.97;;;-0.40;99.90;;;;;;5242233;28;20432;-48
2022/12/13 10:38:02;;;;;;;31.60;16.00;;;-0.40;99.90;;;;;;5243764;28;20466;-50
2022/12/13 10:40:45;;;;;;;35.53;17.63;;;-0.40;99.90;;;;;;5258459;28;22098;-49
2022/12/13 10:43:21;;;;;;;34.03;17.33;;;-0.30;99.90;;;;;;5244585;28;20502;-47
2022/12/13 10:45:57;;;;;;;33.17;14.33;;;-0.40;99.90;;;;;;5252584;28;21226;-49
2022/12/13 10:48:38;;;;;;;29.53;15.47;;;-0.20;99.90;;;;;;5252410;28;20471;-49
2022/12/13 10:51:12;;;;;;;34.37;17.43;;;-0.30;99.90;;;;;;5233614;28;20533;-48
2022/12/13 10:53:56;;;;;;;31.73;16.20;;;-0.30;99.90;;;;;;5235872;28;20435;-50
2022/12/13 10:56:43;;;;;;;31.67;15.13;;;-0.30;99.90;;;;;;5252692;28;20437;-47
2022/12/13 10:59:17;;;;;;;29.83;16.43;;;-0.30;99.90;;;;;;5250164;28;20982;-46
2022/12/13 11:01:47;;;;;;;35.50;17.40;;;-0.30;99.90;;;;;;5240696;28;20512;-50
2022/12/13 11:04:30;;;;;;;40.00;16.50;;;-0.20;99.90;;;;;;5240248;28;20437;-49
2022/12/13 11:07:20;;;;;;;27.60;14.53;;;-0.10;99.90;;;;;;5237117;28;20288;-51
2022/12/13 11:09:52;;;;;;;36.27;17.23;;;0.00;99.90;;;;;;5237111;28;20669;-51
2022/12/13 11:12:25;;;;;;;27.97;15.60;;;-0.20;99.90;;;;;;5254806;28;20466;-49
2022/12/13 11:15:03;;;;;;;25.70;14.47;;;-0.10;99.90;;;;;;5232499;28;20511;-48
2022/12/13 11:17:44;;;;;;;36.83;18.20;;;-0.20;99.90;;;;;;5239853;28;20942;-49
2022/12/13 11:20:22;;;;;;;30.23;15.90;;;-0.10;99.90;;;;;;5237509;28;20436;-51
2022/12/13 11:23:45;;;;;;;26.03;14.70;;;-0.10;99.90;;;;;;5248717;28;20460;-49
2022/12/13 11:26:22;;;;;;;29.90;15.97;;;0.00;99.90;;;;;;5210453;28;20842;-52
2022/12/13 11:29:05;;;;;;;35.93;16.20;;;0.00;99.90;;;;;;5230317;28;20458;-49
2022/12/13 11:32:01;;;;;;;27.20;15.43;;;0.10;99.90;;;;;;5252350;28;20548;-48
2022/12/13 11:34:40;;;;;;;31.07;15.73;;;0.10;99.90;;;;;;5241662;28;20960;-48
2022/12/13 11:37:26;;;;;;;25.20;16.03;;;0.20;99.90;;;;;;5239265;28;21582;-49
2022/12/13 11:40:08;;;;;;;34.97;16.23;;;0.10;99.90;;;;;;5234581;28;20436;-46
2022/12/13 11:42:48;;;;;;;31.93;16.63;;;0.00;99.90;;;;;;5230028;28;20460;-50
2022/12/13 11:45:37;;;;;;;28.23;15.70;;;-0.10;99.90;;;;;;5236395;28;20447;-47
2022/12/13 11:48:08;;;;;;;35.77;15.67;;;0.00;99.90;;;;;;5253467;28;20447;-47
2022/12/13 11:50:45;;;;;;;27.50;14.77;;;0.00;99.90;;;;;;5236087;28;20448;-50
2022/12/13 11:53:35;;;;;;;29.60;16.60;;;0.00;99.90;;;;;;5237160;28;20210;-47
2022/12/13 11:56:25;;;;;;;23.43;13.90;;;0.00;99.90;;;;;;5243880;28;20493;-48
2022/12/13 11:59:02;;;;;;;27.87;14.63;;;0.00;99.90;;;;;;5235361;28;20545;-47
2022/12/13 12:01:42;;;;;;;31.70;15.23;;;-0.10;99.90;;;;;;5237765;28;20491;-47
2022/12/13 12:04:18;;;;;;;26.07;14.37;;;0.00;99.90;;;;;;5236478;28;20822;-47
2022/12/13 12:07:03;;;;;;;26.63;13.63;;;0.00;99.90;;;;;;5243370;28;20442;-49
2022/12/13 12:09:38;;;;;;;35.40;15.17;;;0.10;99.90;;;;;;5221044;28;20470;-47
2022/12/13 12:12:30;;;;;;;27.47;14.40;;;0.10;99.90;;;;;;5240585;28;20476;-50
2022/12/13 12:15:16;;;;;;;27.67;14.27;;;0.10;99.90;;;;;;5236088;28;20447;-48
2022/12/13 12:17:48;;;;;;;30.57;16.23;;;0.10;99.90;;;;;;5254323;28;20456;-47
2022/12/13 12:20:44;;;;;;;26.33;14.00;;;0.10;99.90;;;;;;5239471;28;20452;-49
2022/12/13 12:23:46;;;;;;;31.43;15.30;;;0.10;99.90;;;;;;5239423;28;20459;-50
2022/12/13 12:26:22;;;;;;;25.30;13.07;;;0.10;99.90;;;;;;5236719;28;20444;-49
2022/12/13 12:29:05;;;;;;;21.03;13.23;;;0.10;99.90;;;;;;5240335;28;20440;-47
2022/12/13 12:32:01;;;;;;;22.30;13.60;;;0.10;99.90;;;;;;5258043;28;20459;-49
2022/12/13 12:34:32;;;;;;;30.87;14.57;;;0.20;99.90;;;;;;5236972;28;20946;-46
2022/12/13 12:37:44;;;;;;;34.20;13.47;;;0.20;99.90;;;;;;5236150;28;20470;-49
2022/12/13 12:40:45;;;;;;;32.03;14.17;;;0.30;99.90;;;;;;5183213;28;20190;-48
2022/12/13 12:43:34;;;;;;;27.60;14.33;;;0.30;99.90;;;;;;5193027;28;20454;-50
2022/12/13 12:46:35;;;;;;;29.37;14.60;;;0.20;99.90;;;;;;5234864;28;20452;-48
2022/12/13 12:49:45;;;;;;;27.57;14.20;;;0.20;99.90;;;;;;5231153;28;20526;-51
2022/12/13 12:52:24;;;;;;;27.87;16.20;;;0.30;99.90;;;;;;5256570;28;20456;-47
2022/12/13 12:55:19;;;;;;;26.80;14.13;;;0.30;99.90;;;;;;5256521;28;20445;-48
2022/12/13 12:58:19;;;;;;;30.57;14.20;;;0.10;99.90;;;;;;5255677;28;20972;-48
2022/12/13 13:00:59;;;;;;;28.27;14.80;;;0.30;99.90;;;;;;5212050;28;20523;-48
2022/12/13 13:03:34;;;;;;;24.03;12.07;;;0.10;99.90;;;;;;5249310;28;20444;-47
2022/12/13 13:06:24;;;;;;;19.20;11.60;;;0.10;99.90;;;;;;5237534;28;20482;-48
2022/12/13 13:09:00;;;;;;;19.10;12.47;;;0.10;99.90;;;;;;5250128;28;20455;-48
2022/12/13 13:11:36;;;;;;;18.10;11.83;;;0.20;99.90;;;;;;5241007;28;20470;-47
2022/12/13 13:14:31;;;;;;;25.87;13.07;;;0.30;99.90;;;;;;5237868;28;21009;-48